WEATHER DATA

YESTERDAY
Time Temp. Dewp. Hum. Wind dir Wind speed Wind gust Bar. 1h Prec. 24h Prec.
00:01 5.1 3.4 89 270 1.1 5.3 999.5 0.0000 0.0000
00:16 5 3.5 90 270 1.1 2.5 999.3 0.0000 0.0000
00:27 5 3.5 90 270 1.1 2.2 999.1 0.0000 0.0000
00:42 5.1 3.8 91 270 1.4 5.3 999 0.0000 0.0000
00:52 5.1 3.8 91 270 1.1 5.3 998.9 0.0000 0.0000
01:02 5.2 3.9 91 270 0.8 1.9 998.8 0.0000 0.0000
01:12 5.3 3.8 90 278 1.1 1.9 998.7 0.0000 0.0000
01:27 5.4 3.9 90 270 1.1 1.9 998.5 0.0000 0.0000
01:38 5.4 3.9 90 270 1.4 5 998.3 0.0000 0.0000
01:48 5.5 4 90 270 1.1 1.9 998 0.0000 0.0000
01:58 5.5 3.8 89 270 1.1 2.5 998.1 0.0000 0.0000
02:08 5.6 3.9 89 263 1.4 5.6 998.3 0.0000 0.0000
02:16 5.7 4 89 270 1.1 2.2 998.3 0.3030 0.3000
02:26 5.6 3.8 88 261 1.4 3.1 998.2 0.6060 0.6000
02:36 5.4 3.6 88 270 1.1 1.9 998.1 0.8080 0.8000
02:47 5.2 3.4 88 270 1.7 2.8 998.1 0.8080 0.8000
02:57 5.1 3.3 88 263 1.4 2.5 998 0.8080 0.8000
03:06 5 3.3 89 270 1.4 2.5 997.8 0.8080 0.8000
03:17 5 3.3 89 270 1.4 2.2 997.8 0.4040 0.8000
03:27 4.9 3.2 89 270 1.7 2.8 997.5 0.1010 0.8000
03:37 4.8 3.3 90 270 1.1 3.1 997 0.0000 0.8000
03:47 4.6 3.1 90 270 1.4 2.2 996.9 0.0000 0.8000
03:58 4.6 3.3 91 270 1.1 2.2 997.1 0.0000 0.8000
04:07 4.7 3.4 91 270 1.4 2.2 997 0.0000 0.8000
04:17 4.8 3.6 92 270 1.1 2.5 997 0.0000 0.8000
04:28 4.8 3.6 92 270 1.4 2.5 996.9 0.0000 0.8000
04:38 4.8 3.6 92 270 1.4 2.5 996.8 0.0000 0.8000
04:48 4.8 3.6 92 270 1.4 2.2 996.8 0.0000 0.8000
04:58 4.8 3.6 92 270 1.1 2.2 996.4 0.0000 0.8000
05:09 4.9 3.7 92 270 1.4 2.5 996.2 0.0000 0.8000
05:23 4.9 3.7 92 270 1.1 1.9 996.1 0.0000 0.8000
05:33 5 3.8 92 270 1.4 2.5 996.1 0.0000 0.8000
05:44 5 3.8 92 270 1.7 2.5 996 0.0000 0.8000
05:54 5.1 3.9 92 270 1.1 1.9 996.1 0.0000 0.8000
06:04 5.1 3.9 92 270 1.4 2.8 996 0.0000 0.8000
06:14 5.1 3.9 92 270 1.7 2.5 996.2 0.0000 0.8000
06:29 5 3.8 92 270 1.7 2.8 996.1 0.0000 0.8000
06:39 5 3.8 92 270 1.4 5 996.2 0.0000 0.8000
06:49 4.9 3.7 92 270 1.4 2.5 996 0.0000 0.8000
07:01 4.9 3.7 92 265 1.7 5.3 995.8 0.0000 0.8000
07:12 4.9 3.9 93 270 1.4 2.5 995.8 0.0000 0.8000
07:22 4.9 3.9 93 270 1.4 2.2 995.5 0.0000 0.8000
07:32 4.9 3.9 93 270 1.7 2.8 995.4 0.0000 0.8000
07:42 5 4 93 276 1.4 2.8 995.4 0.0000 0.8000
07:52 5 4 93 270 1.7 2.5 995.2 0.0000 0.8000
08:02 5 4 93 270 1.7 5.3 995.1 0.0000 0.8000
08:12 4.9 3.7 92 270 1.9 2.8 995.1 0.0000 0.8000
08:28 4.8 3.8 93 270 1.9 3.1 994.9 0.0000 0.8000
08:52 4.9 3.9 93 270 1.7 2.5 994.6 0.0000 0.8000
09:13 5.1 4.2 94 270 1.7 5.3 994.3 0.1010 0.9000
09:23 5.3 4.4 94 270 1.4 2.8 993.9 0.1010 0.9000
09:43 5.4 4.4 93 270 1.4 2.8 993.9 0.4040 1.2000
09:53 5.5 4.5 93 264 1.4 5.3 993.9 0.9090 1.7000
09:58 5.6 4.6 93 270 1.4 2.5 993.9 1.3130 2.1000
10:10 5.7 4.7 93 270 1.1 5.6 993.8 1.7170 2.6000
10:21 5.7 4.7 93 279 1.1 2.5 993.6 2.0200 2.9000
10:31 5.8 4.9 94 270 1.1 2.5 993.3 2.3230 3.2000
10:40 6.1 5.2 94 289 0.8 1.9 992.8 2.2220 3.4000
10:51 6.4 5.7 95 287 1.1 2.2 992.3 1.8180 3.5000
11:02 6.7 5.8 94 276 1.4 5.3 992 1.3130 3.6000
11:07 6.9 5.8 93 279 1.4 2.8 991.7 1.0100 3.6000
11:22 7.2 6 92 270 1.4 2.2 991.5 0.7070 3.6000
11:27 7.4 6 91 270 1.4 2.5 991.3 0.4040 3.6000
11:38 7.6 6.1 90 264 1.4 5.3 991.2 0.2020 3.6000
11:48 7.7 6 89 256 1.7 5.3 990.9 0.3030 3.8000
11:58 7.8 5.9 88 257 1.4 5.6 991.1 0.5050 4.1000
12:13 7.8 6.1 89 270 1.7 5.6 990.4 0.8080 4.4000
12:20 7.9 6 88 259 1.4 5.3 990.2 0.8080 4.4000
12:31 8 6 87 260 1.4 5.6 989.9 0.8080 4.4000
12:41 8.1 5.9 86 270 1.4 2.8 989.4 0.8080 4.5000
12:51 8.2 6 86 270 1.4 2.8 989.1 1.1110 5.1000
13:00 8.2 6.2 87 276 1.7 2.8 988.7 0.8080 5.2000
13:11 8.3 6.3 87 270 1.4 2.8 988.3 0.8080 5.3000
13:16 8.4 6.4 87 270 1.4 6.4 988.1 0.8080 5.3000
13:26 8.6 6.6 87 284 1.7 6.1 987.5 0.9090 5.4000
13:36 8.7 6.3 85 276 1.4 2.8 987.1 0.3030 5.4000
13:57 9.3 6.6 83 270 1.4 3.3 986.4 0.2020 5.4000
14:06 9.6 6.7 82 270 1.7 3.9 986 0.1010 5.4000
14:17 9.8 6.7 81 262 1.9 6.7 985.6 0.1010 5.4000
14:32 10.2 6.7 79 256 1.7 4.4 985.1 0.0000 5.4000
14:42 10.6 6.6 76 277 1.7 4.2 984.6 0.0000 5.4000
14:52 10.8 6.2 73 270 1.7 5 984.6 0.0000 5.4000
15:02 11.1 6.2 72 265 1.7 6.1 984.3 0.0000 5.4000
15:12 11.3 6 70 281 1.7 4.2 984.1 0.0000 5.4000
15:22 11.4 6.5 72 270 1.9 6.4 983.4 0.0000 5.4000
15:33 11.5 6.6 72 270 1.7 5.3 983.3 0.0000 5.4000
15:43 11.6 6.5 71 270 1.7 3.9 983.1 0.0000 5.4000
15:53 11.8 6.3 69 251 2.2 6.7 982.7 0.0000 5.4000
16:03 12 6.3 68 289 1.7 5.8 982.7 0.0000 5.4000
16:10 12.1 5.9 66 305 1.7 6.9 982.7 0.0000 5.4000
16:20 12 5.6 65 319 1.1 2.2 982.4 0.0000 5.4000
16:31 12 6.1 67 270 1.1 2.2 982.3 0.0000 5.4000
16:41 11.9 5.8 66 317 1.1 2.2 981.9 0.0000 5.4000
17:01 11.5 6.4 71 270 1.1 2.2 981.9 0.2020 5.6000
17:07 11.2 6.3 72 270 1.1 2.2 982 0.3030 5.7000
17:17 10.8 6.4 74 270 1.1 2.5 981.9 0.5050 5.9000
17:26 10.3 6.3 76 270 1.1 3.3 981.9 0.8080 6.2000
17:36 9.7 6.1 78 270 1.1 5.3 982 1.0100 6.4000
17:51 9.2 6.1 81 261 1.7 6.9 982.1 1.3130 6.9000
18:11 8.7 6 83 270 1.1 3.3 981.9 2.1210 7.9000
18:22 8.5 6 84 259 1.4 2.5 981.8 2.4240 8.4000
18:32 8.4 6 85 264 1.4 2.5 981.6 2.8280 9.1000
18:41 8.4 6.2 86 259 1.7 3.9 981.4 3.1310 9.7000
18:46 8.5 6.3 86 252 2.2 7.2 981.3 3.0300 9.9000
19:01 8.5 6.3 86 255 1.7 6.1 981.3 3.2320 10.6000
19:11 8.6 6.2 85 270 1.4 3.1 981.2 3.2320 11.1000
19:14 8.7 6.3 85 256 1.7 6.1 981.1 2.8280 11.2000
19:24 8.8 6.4 85 249 1.7 5.6 981.1 2.4240 11.5000
19:34 8.9 6.3 84 253 2.2 6.4 981.2 2.1210 11.8000
19:45 9 6.3 83 249 1.9 7.5 981.1 2.1210 12.3000
19:55 9 6.3 83 270 1.1 2.5 981.2 2.1210 12.7000
20:05 8.9 6.2 83 270 1.1 1.9 981.2 1.8180 12.9000
20:15 8.7 5.8 82 261 1.4 2.8 981.1 1.9190 13.3000
20:26 8.5 5.4 81 277 1.4 4.4 981 1.8180 13.5000
20:36 8.4 5.3 81 250 1.7 3.6 981 1.6160 13.6000
20:45 8.4 5.2 80 270 1.1 3.1 980.9 1.1110 13.6000
21:01 7.7 3.9 77 1.7 5 980.8 1.0100 13.8000
21:11 7.3 3.7 78 1.9 6.4 981.1 0.9090 14.0000
21:23 7 3.4 78 2.5 8.9 980.6 0.8080 14.3000
21:33 6.6 3.4 80 2.2 9.7 980.9 0.9090 14.5000
21:43 6.2 3 80 298 2.5 6.9 981.8 1.3130 14.9000
21:53 5.8 2.6 80 270 2.5 6.4 981.4 1.8180 15.7000
22:03 5.4 2.6 82 262 3.1 10 981.7 2.3230 16.4000
22:13 5.2 2.4 82 270 2.5 6.9 981.7 2.5250 16.9000
22:24 5.2 2.2 81 298 2.5 7.8 982.2 2.6260 17.2000
22:34 5.3 2.1 80 266 3.1 7.5 982.1 2.3230 17.3000
22:44 5.7 2 77 270 2.5 6.1 982.6 1.6160 17.3000
22:55 5.9 2.4 78 252 2.5 9.2 982.5 1.0100 17.4000
23:05 6.1 2.6 78 253 2.8 6.9 982.9 0.6060 17.5000
23:15 6.4 2.5 76 230 2.5 7.5 983.5 0.6060 17.6000
23:27 6.5 2.6 76 252 3.1 12.5 983.5 0.5050 17.7000
23:41 6.6 3 78 249 3.3 13.6 983.9 0.7070 18.0000
23:51 6.6 3.2 79 266 3.1 10.8 983.9 0.8080

DAY STATISTIC

2019-12-13
TEMPERATURE
AVERAGE
7.1
HIGH
12.1
16:10
LOW
4.6
03:47
PRESSURE
AVERAGE
989.6
HIGH
999.5
00:01
LOW
980.6
21:23
DEWPOINT
AVERAGE
4.7
HIGH
6.7
14:06
LOW
2.0
22:44
HUMIDITY
AVERAGE
85
HIGH
95
10:51
LOW
65
16:20
WIND SPEED
AVERAGE
1.6
HIGH
3.3
23:41
WIND GUST
AVERAGE
4.2
HIGH
13.6
23:41
WIND DIRECTION
PREVAILING
W
92.5%
N
0.0
NE
0.0
E
0.0
SE
0.0
S
0.0
SW
0.8
W
92.5
NW
3.8
PRECIPITATION
RAIN HOUR
3.2
RAIN DAY
18.0
TEMPERATURE (°C)
LOW
4.6
HIGH
12.1
AVERAGE
7.1
PRESSURE (hpa)
LOW
980.6
HIGH
999.5
AVERAGE
989.6
DEVICE